sensor_id;sensor_type;location;lat;lon;timestamp;temperature;humidity
37456;DHT22;23316;50.718;7.328;2022-11-25T00:00:00;10.70;57.30
37456;DHT22;23316;50.718;7.328;2022-11-25T00:02:27;10.60;57.40
37456;DHT22;23316;50.718;7.328;2022-11-25T00:04:55;10.60;57.40
37456;DHT22;23316;50.718;7.328;2022-11-25T00:07:22;10.70;57.90
37456;DHT22;23316;50.718;7.328;2022-11-25T00:09:49;10.70;57.50
37456;DHT22;23316;50.718;7.328;2022-11-25T00:12:16;10.60;57.40
37456;DHT22;23316;50.718;7.328;2022-11-25T00:14:44;10.70;57.50
37456;DHT22;23316;50.718;7.328;2022-11-25T00:17:13;10.70;57.50
37456;DHT22;23316;50.718;7.328;2022-11-25T00:19:40;10.70;57.50
37456;DHT22;23316;50.718;7.328;2022-11-25T00:22:07;10.70;57.50
37456;DHT22;23316;50.718;7.328;2022-11-25T00:24:34;10.70;57.50
37456;DHT22;23316;50.718;7.328;2022-11-25T00:27:02;10.70;57.60
37456;DHT22;23316;50.718;7.328;2022-11-25T00:29:30;10.70;57.60
37456;DHT22;23316;50.718;7.328;2022-11-25T00:31:57;10.70;57.70
37456;DHT22;23316;50.718;7.328;2022-11-25T00:34:26;10.80;57.80
37456;DHT22;23316;50.718;7.328;2022-11-25T00:36:53;10.70;57.80
37456;DHT22;23316;50.718;7.328;2022-11-25T00:39:21;10.70;57.80
37456;DHT22;23316;50.718;7.328;2022-11-25T00:41:49;10.80;57.80
37456;DHT22;23316;50.718;7.328;2022-11-25T00:44:34;10.80;57.80
37456;DHT22;23316;50.718;7.328;2022-11-25T00:47:01;10.70;57.80
37456;DHT22;23316;50.718;7.328;2022-11-25T00:49:30;10.80;57.90
37456;DHT22;23316;50.718;7.328;2022-11-25T00:51:59;10.70;57.90
37456;DHT22;23316;50.718;7.328;2022-11-25T00:54:26;10.80;58.00
37456;DHT22;23316;50.718;7.328;2022-11-25T00:56:54;10.80;58.00
37456;DHT22;23316;50.718;7.328;2022-11-25T00:59:21;10.80;58.00
37456;DHT22;23316;50.718;7.328;2022-11-25T01:01:48;10.80;58.00
37456;DHT22;23316;50.718;7.328;2022-11-25T01:04:16;10.80;58.00
37456;DHT22;23316;50.718;7.328;2022-11-25T01:06:44;10.80;58.00
37456;DHT22;23316;50.718;7.328;2022-11-25T01:09:12;10.80;58.00
37456;DHT22;23316;50.718;7.328;2022-11-25T01:11:39;10.80;57.90
37456;DHT22;23316;50.718;7.328;2022-11-25T01:14:07;10.80;57.90
37456;DHT22;23316;50.718;7.328;2022-11-25T01:16:34;10.90;57.90
37456;DHT22;23316;50.718;7.328;2022-11-25T01:19:02;10.90;57.80
37456;DHT22;23316;50.718;7.328;2022-11-25T01:21:31;10.90;57.80
37456;DHT22;23316;50.718;7.328;2022-11-25T01:24:02;10.90;57.80
37456;DHT22;23316;50.718;7.328;2022-11-25T01:26:31;10.90;57.70
37456;DHT22;23316;50.718;7.328;2022-11-25T01:29:00;10.90;57.70
37456;DHT22;23316;50.718;7.328;2022-11-25T01:31:28;10.90;58.20
37456;DHT22;23316;50.718;7.328;2022-11-25T01:33:58;10.90;57.70
37456;DHT22;23316;50.718;7.328;2022-11-25T01:36:26;10.90;57.70
37456;DHT22;23316;50.718;7.328;2022-11-25T01:38:55;10.90;57.70
37456;DHT22;23316;50.718;7.328;2022-11-25T01:41:26;10.90;57.70
37456;DHT22;23316;50.718;7.328;2022-11-25T01:44:10;10.90;57.70
37456;DHT22;23316;50.718;7.328;2022-11-25T01:46:50;10.90;57.80
37456;DHT22;23316;50.718;7.328;2022-11-25T01:49:24;11.00;57.80
37456;DHT22;23316;50.718;7.328;2022-11-25T01:51:56;11.00;57.90
37456;DHT22;23316;50.718;7.328;2022-11-25T01:54:28;11.00;57.90
37456;DHT22;23316;50.718;7.328;2022-11-25T01:57:00;11.00;58.00
37456;DHT22;23316;50.718;7.328;2022-11-25T01:59:31;11.00;58.10
37456;DHT22;23316;50.718;7.328;2022-11-25T02:02:01;11.00;58.20
37456;DHT22;23316;50.718;7.328;2022-11-25T02:04:32;11.00;58.30
37456;DHT22;23316;50.718;7.328;2022-11-25T02:07:04;11.00;58.50
37456;DHT22;23316;50.718;7.328;2022-11-25T02:09:36;11.00;58.60
37456;DHT22;23316;50.718;7.328;2022-11-25T02:12:06;11.10;58.70
37456;DHT22;23316;50.718;7.328;2022-11-25T02:14:34;11.10;58.80
37456;DHT22;23316;50.718;7.328;2022-11-25T02:17:01;11.10;58.80
37456;DHT22;23316;50.718;7.328;2022-11-25T02:19:42;11.10;58.90
37456;DHT22;23316;50.718;7.328;2022-11-25T02:22:20;11.10;58.90
37456;DHT22;23316;50.718;7.328;2022-11-25T02:24:52;11.20;58.90
37456;DHT22;23316;50.718;7.328;2022-11-25T02:27:22;11.20;58.80
37456;DHT22;23316;50.718;7.328;2022-11-25T02:29:50;11.20;58.80
37456;DHT22;23316;50.718;7.328;2022-11-25T02:32:20;11.20;58.70
37456;DHT22;23316;50.718;7.328;2022-11-25T02:34:48;11.20;58.70
37456;DHT22;23316;50.718;7.328;2022-11-25T02:37:18;11.30;58.70
37456;DHT22;23316;50.718;7.328;2022-11-25T02:39:47;11.30;58.70
37456;DHT22;23316;50.718;7.328;2022-11-25T02:42:18;11.30;58.60
37456;DHT22;23316;50.718;7.328;2022-11-25T02:44:48;11.30;58.60
37456;DHT22;23316;50.718;7.328;2022-11-25T02:47:15;11.30;58.50
37456;DHT22;23316;50.718;7.328;2022-11-25T02:49:43;11.30;58.40
37456;DHT22;23316;50.718;7.328;2022-11-25T02:52:10;11.40;58.50
37456;DHT22;23316;50.718;7.328;2022-11-25T02:54:39;11.40;58.40
37456;DHT22;23316;50.718;7.328;2022-11-25T02:57:06;11.40;58.40
37456;DHT22;23316;50.718;7.328;2022-11-25T02:59:33;11.40;58.40
37456;DHT22;23316;50.718;7.328;2022-11-25T03:02:02;11.40;58.30
37456;DHT22;23316;50.718;7.328;2022-11-25T03:04:29;11.40;58.30
37456;DHT22;23316;50.718;7.328;2022-11-25T03:06:56;11.40;58.30
37456;DHT22;23316;50.718;7.328;2022-11-25T03:09:23;11.40;58.30
37456;DHT22;23316;50.718;7.328;2022-11-25T03:11:51;11.40;58.30
37456;DHT22;23316;50.718;7.328;2022-11-25T03:14:35;11.40;58.30
37456;DHT22;23316;50.718;7.328;2022-11-25T03:17:04;11.40;58.20
37456;DHT22;23316;50.718;7.328;2022-11-25T03:19:31;11.40;58.20
37456;DHT22;23316;50.718;7.328;2022-11-25T03:21:58;11.40;58.10
37456;DHT22;23316;50.718;7.328;2022-11-25T03:24:25;11.40;58.10
37456;DHT22;23316;50.718;7.328;2022-11-25T03:26:53;11.50;58.20
37456;DHT22;23316;50.718;7.328;2022-11-25T03:29:20;11.50;58.20
37456;DHT22;23316;50.718;7.328;2022-11-25T03:31:47;11.40;58.10
37456;DHT22;23316;50.718;7.328;2022-11-25T03:34:16;11.50;58.10
37456;DHT22;23316;50.718;7.328;2022-11-25T03:36:43;11.50;58.10
37456;DHT22;23316;50.718;7.328;2022-11-25T03:39:10;11.50;58.00
37456;DHT22;23316;50.718;7.328;2022-11-25T03:41:37;11.50;58.00
37456;DHT22;23316;50.718;7.328;2022-11-25T03:44:05;11.50;58.00
37456;DHT22;23316;50.718;7.328;2022-11-25T03:46:32;11.50;57.90
37456;DHT22;23316;50.718;7.328;2022-11-25T03:48:59;11.50;57.90
37456;DHT22;23316;50.718;7.328;2022-11-25T03:51:28;11.50;57.90
37456;DHT22;23316;50.718;7.328;2022-11-25T03:53:55;11.50;57.90
37456;DHT22;23316;50.718;7.328;2022-11-25T03:56:22;11.50;57.90
37456;DHT22;23316;50.718;7.328;2022-11-25T03:58:49;11.50;57.90
37456;DHT22;23316;50.718;7.328;2022-11-25T04:01:17;11.50;57.80
37456;DHT22;23316;50.718;7.328;2022-11-25T04:03:44;11.50;57.80
37456;DHT22;23316;50.718;7.328;2022-11-25T04:06:11;11.60;57.80
37456;DHT22;23316;50.718;7.328;2022-11-25T04:08:40;11.50;57.70
37456;DHT22;23316;50.718;7.328;2022-11-25T04:11:07;11.60;57.80
37456;DHT22;23316;50.718;7.328;2022-11-25T04:13:34;11.50;57.70
37456;DHT22;23316;50.718;7.328;2022-11-25T04:16:00;11.50;57.70
37456;DHT22;23316;50.718;7.328;2022-11-25T04:18:27;11.50;57.70
37456;DHT22;23316;50.718;7.328;2022-11-25T04:20:55;11.60;57.80
37456;DHT22;23316;50.718;7.328;2022-11-25T04:23:23;11.60;57.80
37456;DHT22;23316;50.718;7.328;2022-11-25T04:25:52;11.60;57.80
37456;DHT22;23316;50.718;7.328;2022-11-25T04:28:19;11.60;57.80
37456;DHT22;23316;50.718;7.328;2022-11-25T04:30:46;11.60;57.80
37456;DHT22;23316;50.718;7.328;2022-11-25T04:33:13;11.60;57.70
37456;DHT22;23316;50.718;7.328;2022-11-25T04:35:40;11.60;57.70
37456;DHT22;23316;50.718;7.328;2022-11-25T04:38:08;11.60;57.70
37456;DHT22;23316;50.718;7.328;2022-11-25T04:40:35;11.60;57.70
37456;DHT22;23316;50.718;7.328;2022-11-25T04:43:03;11.60;57.70
37456;DHT22;23316;50.718;7.328;2022-11-25T04:45:31;11.60;57.70
37456;DHT22;23316;50.718;7.328;2022-11-25T04:47:58;11.60;57.70
37456;DHT22;23316;50.718;7.328;2022-11-25T04:50:25;11.60;57.70
37456;DHT22;23316;50.718;7.328;2022-11-25T04:52:52;11.60;57.70
37456;DHT22;23316;50.718;7.328;2022-11-25T04:55:19;11.60;57.80
37456;DHT22;23316;50.718;7.328;2022-11-25T04:57:47;11.60;57.80
37456;DHT22;23316;50.718;7.328;2022-11-25T05:00:16;11.60;57.90
37456;DHT22;23316;50.718;7.328;2022-11-25T05:02:43;11.60;57.90
37456;DHT22;23316;50.718;7.328;2022-11-25T05:05:10;11.60;58.00
37456;DHT22;23316;50.718;7.328;2022-11-25T05:07:37;11.60;58.10
37456;DHT22;23316;50.718;7.328;2022-11-25T05:10:06;11.60;58.10
37456;DHT22;23316;50.718;7.328;2022-11-25T05:12:33;11.70;58.20
37456;DHT22;23316;50.718;7.328;2022-11-25T05:15:01;11.70;58.20
37456;DHT22;23316;50.718;7.328;2022-11-25T05:17:31;11.70;58.20
37456;DHT22;23316;50.718;7.328;2022-11-25T05:19:59;11.70;58.20
37456;DHT22;23316;50.718;7.328;2022-11-25T05:22:28;11.70;58.20
37456;DHT22;23316;50.718;7.328;2022-11-25T05:24:55;11.70;58.30
37456;DHT22;23316;50.718;7.328;2022-11-25T05:27:23;11.70;58.20
37456;DHT22;23316;50.718;7.328;2022-11-25T05:29:51;11.70;58.30
37456;DHT22;23316;50.718;7.328;2022-11-25T05:32:18;11.70;58.30
37456;DHT22;23316;50.718;7.328;2022-11-25T05:34:46;11.70;58.30
37456;DHT22;23316;50.718;7.328;2022-11-25T05:37:14;11.70;58.30
37456;DHT22;23316;50.718;7.328;2022-11-25T05:39:41;11.70;58.30
37456;DHT22;23316;50.718;7.328;2022-11-25T05:42:08;11.80;58.40
37456;DHT22;23316;50.718;7.328;2022-11-25T05:44:35;11.80;58.40
37456;DHT22;23316;50.718;7.328;2022-11-25T05:47:03;11.80;58.40
37456;DHT22;23316;50.718;7.328;2022-11-25T05:49:30;11.80;58.40
37456;DHT22;23316;50.718;7.328;2022-11-25T05:51:58;11.80;58.40
37456;DHT22;23316;50.718;7.328;2022-11-25T05:54:27;11.80;58.50
37456;DHT22;23316;50.718;7.328;2022-11-25T05:56:54;11.80;58.50
37456;DHT22;23316;50.718;7.328;2022-11-25T05:59:21;11.80;58.40
37456;DHT22;23316;50.718;7.328;2022-11-25T06:01:51;11.80;58.50
37456;DHT22;23316;50.718;7.328;2022-11-25T06:04:18;11.80;58.50
37456;DHT22;23316;50.718;7.328;2022-11-25T06:06:46;11.80;58.50
37456;DHT22;23316;50.718;7.328;2022-11-25T06:09:14;11.80;58.40
37456;DHT22;23316;50.718;7.328;2022-11-25T06:11:41;11.80;58.50
37456;DHT22;23316;50.718;7.328;2022-11-25T06:14:09;11.80;58.50
37456;DHT22;23316;50.718;7.328;2022-11-25T06:16:36;11.80;58.50
37456;DHT22;23316;50.718;7.328;2022-11-25T06:19:03;11.80;58.60
37456;DHT22;23316;50.718;7.328;2022-11-25T06:21:31;11.80;58.60
37456;DHT22;23316;50.718;7.328;2022-11-25T06:23:59;11.80;58.60
37456;DHT22;23316;50.718;7.328;2022-11-25T06:26:28;11.80;58.60
37456;DHT22;23316;50.718;7.328;2022-11-25T06:28:56;11.80;58.60
37456;DHT22;23316;50.718;7.328;2022-11-25T06:31:24;11.80;58.60
37456;DHT22;23316;50.718;7.328;2022-11-25T06:33:52;11.80;58.70
37456;DHT22;23316;50.718;7.328;2022-11-25T06:36:20;11.80;58.70
37456;DHT22;23316;50.718;7.328;2022-11-25T06:38:49;11.80;58.70
37456;DHT22;23316;50.718;7.328;2022-11-25T06:41:17;11.80;58.70
37456;DHT22;23316;50.718;7.328;2022-11-25T06:43:46;11.80;58.70
37456;DHT22;23316;50.718;7.328;2022-11-25T06:46:15;11.80;58.80
37456;DHT22;23316;50.718;7.328;2022-11-25T06:48:43;11.80;58.80
37456;DHT22;23316;50.718;7.328;2022-11-25T06:51:15;11.80;58.80
37456;DHT22;23316;50.718;7.328;2022-11-25T06:53:42;11.80;59.30
37456;DHT22;23316;50.718;7.328;2022-11-25T06:56:11;11.80;58.80
37456;DHT22;23316;50.718;7.328;2022-11-25T06:58:40;11.80;58.80
37456;DHT22;23316;50.718;7.328;2022-11-25T07:01:12;11.80;58.80
37456;DHT22;23316;50.718;7.328;2022-11-25T07:03:39;11.70;58.80
37456;DHT22;23316;50.718;7.328;2022-11-25T07:06:07;11.70;58.80
37456;DHT22;23316;50.718;7.328;2022-11-25T07:08:36;11.80;58.90
37456;DHT22;23316;50.718;7.328;2022-11-25T07:11:05;11.80;58.90
37456;DHT22;23316;50.718;7.328;2022-11-25T07:13:32;11.80;58.90
37456;DHT22;23316;50.718;7.328;2022-11-25T07:16:01;11.80;58.90
37456;DHT22;23316;50.718;7.328;2022-11-25T07:18:31;11.80;58.90
37456;DHT22;23316;50.718;7.328;2022-11-25T07:21:03;11.80;58.90
37456;DHT22;23316;50.718;7.328;2022-11-25T07:23:32;11.80;58.90
37456;DHT22;23316;50.718;7.328;2022-11-25T07:26:03;11.80;58.90
37456;DHT22;23316;50.718;7.328;2022-11-25T07:28:31;11.70;59.00
37456;DHT22;23316;50.718;7.328;2022-11-25T07:31:04;11.80;59.00
37456;DHT22;23316;50.718;7.328;2022-11-25T07:33:33;11.80;59.10
37456;DHT22;23316;50.718;7.328;2022-11-25T07:36:01;11.70;59.00
37456;DHT22;23316;50.718;7.328;2022-11-25T07:38:30;11.80;59.10
37456;DHT22;23316;50.718;7.328;2022-11-25T07:41:03;11.80;59.10
37456;DHT22;23316;50.718;7.328;2022-11-25T07:43:30;11.80;59.20
37456;DHT22;23316;50.718;7.328;2022-11-25T07:46:10;11.80;59.10
37456;DHT22;23316;50.718;7.328;2022-11-25T07:48:40;11.80;59.10
37456;DHT22;23316;50.718;7.328;2022-11-25T07:51:14;11.80;59.00
37456;DHT22;23316;50.718;7.328;2022-11-25T07:53:41;11.80;58.90
37456;DHT22;23316;50.718;7.328;2022-11-25T07:56:09;11.80;58.90
37456;DHT22;23316;50.718;7.328;2022-11-25T07:58:36;11.80;58.90
37456;DHT22;23316;50.718;7.328;2022-11-25T08:01:05;11.70;58.80
37456;DHT22;23316;50.718;7.328;2022-11-25T08:03:33;11.70;58.80
37456;DHT22;23316;50.718;7.328;2022-11-25T08:06:03;11.80;58.80
37456;DHT22;23316;50.718;7.328;2022-11-25T08:08:31;11.70;58.70
37456;DHT22;23316;50.718;7.328;2022-11-25T08:10:58;11.70;58.70
37456;DHT22;23316;50.718;7.328;2022-11-25T08:13:25;11.70;58.70
37456;DHT22;23316;50.718;7.328;2022-11-25T08:15:53;11.70;58.70
37456;DHT22;23316;50.718;7.328;2022-11-25T08:18:20;11.60;59.20
37456;DHT22;23316;50.718;7.328;2022-11-25T08:20:47;11.60;58.80
37456;DHT22;23316;50.718;7.328;2022-11-25T08:23:16;11.60;58.80
37456;DHT22;23316;50.718;7.328;2022-11-25T08:25:43;11.60;58.90
37456;DHT22;23316;50.718;7.328;2022-11-25T08:28:10;11.60;59.00
37456;DHT22;23316;50.718;7.328;2022-11-25T08:30:38;11.60;59.10
37456;DHT22;23316;50.718;7.328;2022-11-25T08:33:05;11.60;59.20
37456;DHT22;23316;50.718;7.328;2022-11-25T08:35:32;11.60;59.30
37456;DHT22;23316;50.718;7.328;2022-11-25T08:38:03;11.60;59.30
37456;DHT22;23316;50.718;7.328;2022-11-25T08:40:32;11.60;59.40
37456;DHT22;23316;50.718;7.328;2022-11-25T08:43:00;11.60;59.50
37456;DHT22;23316;50.718;7.328;2022-11-25T08:45:28;11.60;59.50
37456;DHT22;23316;50.718;7.328;2022-11-25T08:47:56;11.70;59.60
37456;DHT22;23316;50.718;7.328;2022-11-25T08:50:24;11.70;59.60
37456;DHT22;23316;50.718;7.328;2022-11-25T08:52:51;11.70;59.60
37456;DHT22;23316;50.718;7.328;2022-11-25T08:55:18;11.70;59.70
37456;DHT22;23316;50.718;7.328;2022-11-25T08:57:48;11.70;59.80
37456;DHT22;23316;50.718;7.328;2022-11-25T09:00:16;11.70;59.90
37456;DHT22;23316;50.718;7.328;2022-11-25T09:02:43;11.80;59.90
37456;DHT22;23316;50.718;7.328;2022-11-25T09:05:12;11.80;59.90
37456;DHT22;23316;50.718;7.328;2022-11-25T09:07:39;11.80;60.20
37456;DHT22;23316;50.718;7.328;2022-11-25T09:10:09;11.80;60.50
37456;DHT22;23316;50.718;7.328;2022-11-25T09:12:39;11.80;60.70
37456;DHT22;23316;50.718;7.328;2022-11-25T09:15:09;11.90;60.80
37456;DHT22;23316;50.718;7.328;2022-11-25T09:17:36;11.90;61.00
37456;DHT22;23316;50.718;7.328;2022-11-25T09:20:04;12.00;61.00
37456;DHT22;23316;50.718;7.328;2022-11-25T09:22:32;12.00;61.20
37456;DHT22;23316;50.718;7.328;2022-11-25T09:24:59;12.10;61.20
37456;DHT22;23316;50.718;7.328;2022-11-25T09:27:26;12.10;61.20
37456;DHT22;23316;50.718;7.328;2022-11-25T09:29:54;12.10;61.20
37456;DHT22;23316;50.718;7.328;2022-11-25T09:32:22;12.10;61.30
37456;DHT22;23316;50.718;7.328;2022-11-25T09:34:49;12.20;61.40
37456;DHT22;23316;50.718;7.328;2022-11-25T09:37:17;12.20;61.30
37456;DHT22;23316;50.718;7.328;2022-11-25T09:39:44;12.20;61.30
37456;DHT22;23316;50.718;7.328;2022-11-25T09:42:22;12.30;61.40
37456;DHT22;23316;50.718;7.328;2022-11-25T09:45:11;12.30;61.50
37456;DHT22;23316;50.718;7.328;2022-11-25T09:48:11;12.30;61.30
37456;DHT22;23316;50.718;7.328;2022-11-25T09:50:52;12.40;61.10
37456;DHT22;23316;50.718;7.328;2022-11-25T09:53:34;12.40;61.20
37456;DHT22;23316;50.718;7.328;2022-11-25T09:56:11;12.40;62.00
37456;DHT22;23316;50.718;7.328;2022-11-25T09:58:45;12.40;61.30
37456;DHT22;23316;50.718;7.328;2022-11-25T10:01:16;12.40;61.30
37456;DHT22;23316;50.718;7.328;2022-11-25T10:03:49;12.50;61.40
37456;DHT22;23316;50.718;7.328;2022-11-25T10:06:20;12.50;61.50
37456;DHT22;23316;50.718;7.328;2022-11-25T10:08:50;12.50;61.40
37456;DHT22;23316;50.718;7.328;2022-11-25T10:11:34;12.50;61.40
37456;DHT22;23316;50.718;7.328;2022-11-25T10:14:12;12.50;61.50
37456;DHT22;23316;50.718;7.328;2022-11-25T10:16:49;12.50;61.30
37456;DHT22;23316;50.718;7.328;2022-11-25T10:19:25;12.60;61.20
37456;DHT22;23316;50.718;7.328;2022-11-25T10:21:58;12.60;61.10
37456;DHT22;23316;50.718;7.328;2022-11-25T10:24:26;12.60;60.90
37456;DHT22;23316;50.718;7.328;2022-11-25T10:26:57;12.60;60.90
37456;DHT22;23316;50.718;7.328;2022-11-25T10:29:28;12.60;60.90
37456;DHT22;23316;50.718;7.328;2022-11-25T10:32:03;12.60;60.80
37456;DHT22;23316;50.718;7.328;2022-11-25T10:34:43;12.70;60.80
37456;DHT22;23316;50.718;7.328;2022-11-25T10:37:15;12.70;60.80
37456;DHT22;23316;50.718;7.328;2022-11-25T10:39:44;12.70;60.80
37456;DHT22;23316;50.718;7.328;2022-11-25T10:42:16;12.70;60.70
37456;DHT22;23316;50.718;7.328;2022-11-25T10:44:44;12.80;60.60
37456;DHT22;23316;50.718;7.328;2022-11-25T10:47:22;12.80;60.60
37456;DHT22;23316;50.718;7.328;2022-11-25T10:50:03;12.80;60.60
37456;DHT22;23316;50.718;7.328;2022-11-25T10:52:37;12.90;60.50
37456;DHT22;23316;50.718;7.328;2022-11-25T10:55:11;12.90;60.50
37456;DHT22;23316;50.718;7.328;2022-11-25T10:57:38;12.90;60.40
37456;DHT22;23316;50.718;7.328;2022-11-25T11:00:22;12.90;60.30
37456;DHT22;23316;50.718;7.328;2022-11-25T11:02:50;13.00;60.20
37456;DHT22;23316;50.718;7.328;2022-11-25T11:05:22;13.00;60.10
37456;DHT22;23316;50.718;7.328;2022-11-25T11:08:12;13.00;60.00
37456;DHT22;23316;50.718;7.328;2022-11-25T11:10:41;13.00;59.80
37456;DHT22;23316;50.718;7.328;2022-11-25T11:13:20;13.00;59.80
37456;DHT22;23316;50.718;7.328;2022-11-25T11:15:51;13.10;59.80
37456;DHT22;23316;50.718;7.328;2022-11-25T11:18:23;13.10;59.90
37456;DHT22;23316;50.718;7.328;2022-11-25T11:20:54;13.10;59.90
37456;DHT22;23316;50.718;7.328;2022-11-25T11:23:22;13.20;60.00
37456;DHT22;23316;50.718;7.328;2022-11-25T11:25:58;13.20;59.90
37456;DHT22;23316;50.718;7.328;2022-11-25T11:28:29;13.20;59.80
37456;DHT22;23316;50.718;7.328;2022-11-25T11:31:00;13.30;59.90
37456;DHT22;23316;50.718;7.328;2022-11-25T11:33:32;13.40;59.90
37456;DHT22;23316;50.718;7.328;2022-11-25T11:36:16;13.40;59.80
37456;DHT22;23316;50.718;7.328;2022-11-25T11:38:52;13.50;59.80
37456;DHT22;23316;50.718;7.328;2022-11-25T11:41:30;13.50;59.60
37456;DHT22;23316;50.718;7.328;2022-11-25T11:44:11;13.60;59.40
37456;DHT22;23316;50.718;7.328;2022-11-25T11:46:54;13.60;59.20
37456;DHT22;23316;50.718;7.328;2022-11-25T11:49:44;13.70;59.20
37456;DHT22;23316;50.718;7.328;2022-11-25T11:52:25;13.70;58.90
37456;DHT22;23316;50.718;7.328;2022-11-25T11:55:00;13.70;58.70
37456;DHT22;23316;50.718;7.328;2022-11-25T11:57:34;13.80;58.50
37456;DHT22;23316;50.718;7.328;2022-11-25T12:00:09;13.80;58.20
37456;DHT22;23316;50.718;7.328;2022-11-25T12:02:50;13.80;58.00
37456;DHT22;23316;50.718;7.328;2022-11-25T12:05:21;13.80;57.70
37456;DHT22;23316;50.718;7.328;2022-11-25T12:08:01;13.80;57.50
37456;DHT22;23316;50.718;7.328;2022-11-25T12:10:35;13.90;57.40
37456;DHT22;23316;50.718;7.328;2022-11-25T12:13:11;13.90;58.00
37456;DHT22;23316;50.718;7.328;2022-11-25T12:15:44;13.90;57.40
37456;DHT22;23316;50.718;7.328;2022-11-25T12:18:23;13.90;57.20
37456;DHT22;23316;50.718;7.328;2022-11-25T12:20:58;13.90;56.90
37456;DHT22;23316;50.718;7.328;2022-11-25T12:23:36;13.90;56.80
37456;DHT22;23316;50.718;7.328;2022-11-25T12:26:10;13.90;56.70
37456;DHT22;23316;50.718;7.328;2022-11-25T12:28:42;14.00;56.50
37456;DHT22;23316;50.718;7.328;2022-11-25T12:31:15;14.00;56.30
37456;DHT22;23316;50.718;7.328;2022-11-25T12:33:52;14.00;56.20
37456;DHT22;23316;50.718;7.328;2022-11-25T12:36:27;14.00;56.30
37456;DHT22;23316;50.718;7.328;2022-11-25T12:39:02;14.00;56.20
37456;DHT22;23316;50.718;7.328;2022-11-25T12:41:39;14.00;55.90
37456;DHT22;23316;50.718;7.328;2022-11-25T12:44:13;14.10;55.90
37456;DHT22;23316;50.718;7.328;2022-11-25T12:46:44;14.10;55.50
37456;DHT22;23316;50.718;7.328;2022-11-25T12:49:16;14.10;55.60
37456;DHT22;23316;50.718;7.328;2022-11-25T12:52:10;14.10;55.50
37456;DHT22;23316;50.718;7.328;2022-11-25T12:55:05;14.10;55.40
37456;DHT22;23316;50.718;7.328;2022-11-25T12:58:07;14.20;55.50
37456;DHT22;23316;50.718;7.328;2022-11-25T13:04:02;14.20;55.20
37456;DHT22;23316;50.718;7.328;2022-11-25T13:07:16;14.30;55.50
37456;DHT22;23316;50.718;7.328;2022-11-25T13:10:05;14.30;55.40
37456;DHT22;23316;50.718;7.328;2022-11-25T13:12:44;14.30;55.40
37456;DHT22;23316;50.718;7.328;2022-11-25T13:15:19;14.30;55.30
37456;DHT22;23316;50.718;7.328;2022-11-25T13:17:50;14.40;55.30
37456;DHT22;23316;50.718;7.328;2022-11-25T13:23:45;14.40;54.90
37456;DHT22;23316;50.718;7.328;2022-11-25T13:32:38;14.50;54.90
37456;DHT22;23316;50.718;7.328;2022-11-25T13:35:40;14.60;54.80
37456;DHT22;23316;50.718;7.328;2022-11-25T13:41:32;14.60;54.30
37456;DHT22;23316;50.718;7.328;2022-11-25T13:44:04;14.60;54.50
37456;DHT22;23316;50.718;7.328;2022-11-25T13:46:37;14.60;55.10
37456;DHT22;23316;50.718;7.328;2022-11-25T13:49:24;14.60;54.60
37456;DHT22;23316;50.718;7.328;2022-11-25T13:51:53;14.60;54.30
37456;DHT22;23316;50.718;7.328;2022-11-25T13:54:26;14.60;54.30
37456;DHT22;23316;50.718;7.328;2022-11-25T13:57:00;14.60;54.10
37456;DHT22;23316;50.718;7.328;2022-11-25T13:59:49;14.60;54.00
37456;DHT22;23316;50.718;7.328;2022-11-25T14:02:34;14.60;53.90
37456;DHT22;23316;50.718;7.328;2022-11-25T14:05:14;14.50;53.70
37456;DHT22;23316;50.718;7.328;2022-11-25T14:07:55;14.50;53.40
37456;DHT22;23316;50.718;7.328;2022-11-25T14:10:42;14.50;53.40
37456;DHT22;23316;50.718;7.328;2022-11-25T14:13:21;14.50;53.30
37456;DHT22;23316;50.718;7.328;2022-11-25T14:16:18;14.50;53.00
37456;DHT22;23316;50.718;7.328;2022-11-25T14:19:04;14.50;53.00
37456;DHT22;23316;50.718;7.328;2022-11-25T14:22:01;14.40;52.80
37456;DHT22;23316;50.718;7.328;2022-11-25T14:24:35;14.40;52.80
37456;DHT22;23316;50.718;7.328;2022-11-25T14:27:04;14.30;52.80
37456;DHT22;23316;50.718;7.328;2022-11-25T14:29:37;14.30;52.90
37456;DHT22;23316;50.718;7.328;2022-11-25T14:32:09;14.30;53.10
37456;DHT22;23316;50.718;7.328;2022-11-25T14:34:40;14.30;52.90
37456;DHT22;23316;50.718;7.328;2022-11-25T14:37:13;14.30;53.00
37456;DHT22;23316;50.718;7.328;2022-11-25T14:39:46;14.30;53.30
37456;DHT22;23316;50.718;7.328;2022-11-25T14:42:18;14.30;53.20
37456;DHT22;23316;50.718;7.328;2022-11-25T14:44:48;14.20;53.20
37456;DHT22;23316;50.718;7.328;2022-11-25T14:47:21;14.20;53.20
37456;DHT22;23316;50.718;7.328;2022-11-25T14:49:50;14.20;53.40
37456;DHT22;23316;50.718;7.328;2022-11-25T14:52:21;14.20;53.40
37456;DHT22;23316;50.718;7.328;2022-11-25T14:54:51;14.10;53.30
37456;DHT22;23316;50.718;7.328;2022-11-25T14:57:20;14.20;53.40
37456;DHT22;23316;50.718;7.328;2022-11-25T14:59:49;14.10;53.50
37456;DHT22;23316;50.718;7.328;2022-11-25T15:02:26;14.10;53.50
37456;DHT22;23316;50.718;7.328;2022-11-25T15:05:02;14.10;53.60
37456;DHT22;23316;50.718;7.328;2022-11-25T15:07:31;14.10;53.60
37456;DHT22;23316;50.718;7.328;2022-11-25T15:09:58;14.10;53.50
37456;DHT22;23316;50.718;7.328;2022-11-25T15:12:29;14.00;53.40
37456;DHT22;23316;50.718;7.328;2022-11-25T15:14:57;14.00;53.40
37456;DHT22;23316;50.718;7.328;2022-11-25T15:17:27;14.00;53.40
37456;DHT22;23316;50.718;7.328;2022-11-25T15:19:57;14.00;53.50
37456;DHT22;23316;50.718;7.328;2022-11-25T15:22:25;14.00;53.60
37456;DHT22;23316;50.718;7.328;2022-11-25T15:24:54;14.00;53.60
37456;DHT22;23316;50.718;7.328;2022-11-25T15:27:31;13.90;53.50
37456;DHT22;23316;50.718;7.328;2022-11-25T15:29:59;13.90;53.60
37456;DHT22;23316;50.718;7.328;2022-11-25T15:32:28;13.90;53.60
37456;DHT22;23316;50.718;7.328;2022-11-25T15:34:57;13.90;53.60
37456;DHT22;23316;50.718;7.328;2022-11-25T15:37:25;13.80;53.60
37456;DHT22;23316;50.718;7.328;2022-11-25T15:42:55;13.80;53.50
37456;DHT22;23316;50.718;7.328;2022-11-25T15:45:22;13.70;53.50
37456;DHT22;23316;50.718;7.328;2022-11-25T15:47:50;13.70;53.50
37456;DHT22;23316;50.718;7.328;2022-11-25T15:50:20;13.70;53.50
37456;DHT22;23316;50.718;7.328;2022-11-25T15:52:50;13.60;53.60
37456;DHT22;23316;50.718;7.328;2022-11-25T15:55:25;13.60;53.60
37456;DHT22;23316;50.718;7.328;2022-11-25T15:58:02;13.60;53.70
37456;DHT22;23316;50.718;7.328;2022-11-25T16:00:30;13.60;53.80
37456;DHT22;23316;50.718;7.328;2022-11-25T16:02:58;13.60;53.90
37456;DHT22;23316;50.718;7.328;2022-11-25T16:05:32;13.60;54.00
37456;DHT22;23316;50.718;7.328;2022-11-25T16:10:52;13.50;54.10
37456;DHT22;23316;50.718;7.328;2022-11-25T16:13:42;13.60;54.20
37456;DHT22;23316;50.718;7.328;2022-11-25T16:16:19;13.50;54.20